createdAt,value
2023-01-01T00:00:39.756Z,607.85
2023-01-01T00:03:06.182Z,611.35
2023-01-01T00:05:32.742Z,631.88
2023-01-01T00:08:04.671Z,648.13
2023-01-01T00:10:31.741Z,663.03
2023-01-01T00:12:58.828Z,660.90
2023-01-01T00:15:27.388Z,656.47
2023-01-01T00:17:53.766Z,639.85
2023-01-01T00:20:20.356Z,666.53
2023-01-01T00:22:55.895Z,659.92
2023-01-01T00:25:23.342Z,619.22
2023-01-01T00:27:50.011Z,659.75
2023-01-01T00:30:16.548Z,682.75
2023-01-01T00:32:42.952Z,657.70
2023-01-01T00:35:21.476Z,594.00
2023-01-01T00:37:47.871Z,673.10
2023-01-01T00:40:14.280Z,653.30
2023-01-01T00:42:40.652Z,623.53
2023-01-01T00:45:07.865Z,616.08
2023-01-01T00:47:34.351Z,615.15
2023-01-01T00:50:00.720Z,607.58
2023-01-01T00:52:27.024Z,595.72
2023-01-01T00:54:53.622Z,583.70
2023-01-01T00:57:20.191Z,590.08
2023-01-01T00:59:46.550Z,580.88
2023-01-01T01:02:13.038Z,589.10
2023-01-01T01:04:39.468Z,580.25
2023-01-01T01:07:06.038Z,550.85
2023-01-01T01:09:32.553Z,576.20
2023-01-01T01:12:18.691Z,565.70
2023-01-01T01:14:45.969Z,586.88
2023-01-01T01:17:12.395Z,591.20
2023-01-01T01:19:38.928Z,527.40
2023-01-01T01:22:05.443Z,575.70
2023-01-01T01:24:32.038Z,564.90
2023-01-01T01:26:58.440Z,550.30
2023-01-01T01:29:25.047Z,556.60
2023-01-01T01:31:51.428Z,522.47
2023-01-01T01:34:21.145Z,491.20
2023-01-01T01:36:50.549Z,536.83
2023-01-01T01:39:17.189Z,496.15
2023-01-01T01:41:43.903Z,506.20
2023-01-01T01:44:48.046Z,550.33
2023-01-01T01:47:58.234Z,486.75
2023-01-01T01:50:29.706Z,529.73
2023-01-01T01:53:10.794Z,455.92
2023-01-01T01:55:40.802Z,518.03
2023-01-01T01:58:11.342Z,503.35
2023-01-01T02:00:37.758Z,509.65
2023-01-01T02:03:12.662Z,505.77
2023-01-01T02:05:41.416Z,491.60
2023-01-01T02:08:09.662Z,461.05
2023-01-01T02:10:36.228Z,517.97
2023-01-01T02:13:02.662Z,529.75
2023-01-01T02:15:32.811Z,524.95
2023-01-01T02:18:14.716Z,544.75
2023-01-01T02:20:53.828Z,521.78
2023-01-01T02:23:31.772Z,577.65
2023-01-01T02:26:17.671Z,509.75
2023-01-01T02:29:02.801Z,509.42
2023-01-01T02:31:35.037Z,515.90
2023-01-01T02:34:07.100Z,566.10
2023-01-01T02:36:38.167Z,566.58
2023-01-01T02:39:08.402Z,488.80
2023-01-01T02:41:40.090Z,520.78
2023-01-01T02:46:34.407Z,529.50
2023-01-01T02:49:07.987Z,521.08
2023-01-01T02:52:15.794Z,527.13
2023-01-01T02:54:46.441Z,529.80
2023-01-01T02:57:37.520Z,547.92
2023-01-01T03:02:51.637Z,482.52
2023-01-01T03:05:30.564Z,516.03
2023-01-01T03:08:12.316Z,532.47
2023-01-01T03:10:50.859Z,494.50
2023-01-01T03:13:35.287Z,480.15
2023-01-01T03:16:21.700Z,530.83
2023-01-01T03:19:02.022Z,507.35
2023-01-01T03:21:28.641Z,479.17
2023-01-01T03:23:56.000Z,516.33
2023-01-01T03:26:25.408Z,466.58
2023-01-01T03:28:58.299Z,502.33
2023-01-01T03:31:26.325Z,492.77
2023-01-01T03:34:01.243Z,481.65
2023-01-01T03:36:36.251Z,487.23
2023-01-01T03:39:12.116Z,452.60
2023-01-01T03:41:47.771Z,465.23
2023-01-01T03:44:38.497Z,490.80
2023-01-01T03:47:06.244Z,453.73
2023-01-01T03:49:33.771Z,433.95
2023-01-01T03:52:21.396Z,453.85
2023-01-01T03:55:19.996Z,410.60
2023-01-01T03:57:57.170Z,438.23
2023-01-01T04:00:27.640Z,445.17
2023-01-01T04:03:10.805Z,436.52
2023-01-01T04:05:40.520Z,454.90
2023-01-01T04:08:07.909Z,434.73
2023-01-01T04:10:39.684Z,431.98
2023-01-01T04:13:07.011Z,421.23
2023-01-01T04:15:34.195Z,442.23
2023-01-01T04:18:00.668Z,415.77
2023-01-01T04:20:27.102Z,370.40
2023-01-01T04:22:56.818Z,385.83
2023-01-01T04:25:23.449Z,385.85
2023-01-01T04:27:49.896Z,358.00
2023-01-01T04:30:16.949Z,353.00
2023-01-01T04:32:43.707Z,333.92
2023-01-01T04:35:11.891Z,314.33
2023-01-01T04:37:39.869Z,294.58
2023-01-01T04:40:07.263Z,313.17
2023-01-01T04:42:33.692Z,291.33
2023-01-01T04:45:00.347Z,312.45
2023-01-01T04:47:26.881Z,290.27
2023-01-01T04:49:54.277Z,308.35
2023-01-01T04:52:21.363Z,288.02
2023-01-01T04:54:47.840Z,295.77
2023-01-01T04:57:14.253Z,282.40
2023-01-01T04:59:41.506Z,314.17
2023-01-01T05:02:07.959Z,317.08
2023-01-01T05:04:34.561Z,284.75
2023-01-01T05:07:01.319Z,323.73
2023-01-01T05:09:27.752Z,321.13
2023-01-01T05:11:55.095Z,317.45
2023-01-01T05:14:21.625Z,282.80
2023-01-01T05:16:48.025Z,322.15
2023-01-01T05:19:14.586Z,328.58
2023-01-01T05:21:41.651Z,321.38
2023-01-01T05:24:10.015Z,329.95
2023-01-01T05:26:40.166Z,312.08
2023-01-01T05:29:13.758Z,327.52
2023-01-01T05:31:42.436Z,341.40
2023-01-01T05:36:36.061Z,335.67
2023-01-01T05:39:02.413Z,312.52
2023-01-01T05:41:29.004Z,354.73
2023-01-01T05:43:55.457Z,351.05
2023-01-01T05:46:24.184Z,368.48
2023-01-01T05:48:52.676Z,375.42
2023-01-01T05:51:22.070Z,383.63
2023-01-01T05:53:48.819Z,373.00
2023-01-01T05:56:16.449Z,389.02
2023-01-01T05:58:44.058Z,389.48
2023-01-01T06:01:14.864Z,406.88
2023-01-01T06:03:43.009Z,405.88
2023-01-01T06:06:14.570Z,416.02
2023-01-01T06:08:41.321Z,430.08
2023-01-01T06:11:11.178Z,430.48
2023-01-01T06:13:37.950Z,417.33
2023-01-01T06:16:04.566Z,431.05
2023-01-01T06:18:34.284Z,431.25
2023-01-01T06:21:09.412Z,428.45
2023-01-01T06:23:36.335Z,427.75
2023-01-01T06:26:12.628Z,430.42
2023-01-01T06:28:40.107Z,422.23
2023-01-01T06:31:08.437Z,422.02
2023-01-01T06:33:35.422Z,431.63
2023-01-01T06:36:08.025Z,426.83
2023-01-01T06:38:36.392Z,426.20
2023-01-01T06:41:05.563Z,434.58
2023-01-01T06:43:34.261Z,443.05
2023-01-01T06:46:05.275Z,443.10
2023-01-01T06:48:34.811Z,441.63
2023-01-01T06:51:16.209Z,439.65
2023-01-01T06:53:43.458Z,431.55
2023-01-01T06:56:09.929Z,431.48
2023-01-01T06:58:36.561Z,434.70
2023-01-01T07:01:13.160Z,380.38
2023-01-01T07:03:40.372Z,380.83
2023-01-01T07:06:08.226Z,372.30
2023-01-01T07:08:35.885Z,404.23
2023-01-01T07:11:02.353Z,412.85
2023-01-01T07:13:30.157Z,366.30
2023-01-01T07:15:56.682Z,330.13
2023-01-01T07:18:25.208Z,381.85
2023-01-01T07:20:55.256Z,353.75
2023-01-01T07:23:21.856Z,371.52
2023-01-01T07:25:52.791Z,361.85
2023-01-01T07:30:46.657Z,309.75
2023-01-01T07:33:18.200Z,347.35
2023-01-01T07:35:45.356Z,356.40
2023-01-01T07:38:12.531Z,345.98
2023-01-01T07:40:39.273Z,345.13
2023-01-01T07:43:05.962Z,330.45
2023-01-01T07:45:33.451Z,339.63
2023-01-01T07:48:00.588Z,324.50
2023-01-01T07:50:29.546Z,318.13
2023-01-01T07:52:55.901Z,341.08
2023-01-01T07:55:22.508Z,322.10
2023-01-01T07:57:49.558Z,327.42
2023-01-01T08:00:18.857Z,270.08
2023-01-01T08:02:45.958Z,286.42
2023-01-01T08:05:12.433Z,300.08
2023-01-01T08:07:39.556Z,287.67
2023-01-01T08:10:07.518Z,269.40
2023-01-01T08:12:34.365Z,278.23
2023-01-01T08:15:00.859Z,270.65
2023-01-01T08:17:27.316Z,252.50
2023-01-01T08:19:53.837Z,262.33
2023-01-01T08:22:20.207Z,245.32
2023-01-01T08:24:46.789Z,252.82
2023-01-01T08:27:15.093Z,253.00
2023-01-01T08:29:42.561Z,243.45
2023-01-01T08:32:09.025Z,248.50
2023-01-01T08:34:35.773Z,243.00
2023-01-01T08:37:02.137Z,225.93
2023-01-01T08:39:28.799Z,234.45
2023-01-01T08:41:55.302Z,234.73
2023-01-01T08:44:21.692Z,213.38
2023-01-01T08:46:48.211Z,209.10
2023-01-01T08:49:14.642Z,231.82
2023-01-01T08:51:41.106Z,237.57
2023-01-01T08:54:07.793Z,227.48
2023-01-01T08:56:34.188Z,220.63
2023-01-01T08:59:04.122Z,206.95
2023-01-01T09:01:31.080Z,212.10
2023-01-01T09:03:57.792Z,208.48
2023-01-01T09:06:24.128Z,169.18
2023-01-01T09:08:50.571Z,188.00
2023-01-01T09:11:26.868Z,169.93
2023-01-01T09:13:54.222Z,170.02
2023-01-01T09:16:21.562Z,168.88
2023-01-01T09:18:48.275Z,169.48
2023-01-01T09:21:15.022Z,154.90
2023-01-01T09:23:41.638Z,161.07
2023-01-01T09:26:09.896Z,149.50
2023-01-01T09:28:37.259Z,139.30
2023-01-01T09:31:04.430Z,134.80
2023-01-01T09:33:30.775Z,147.27
2023-01-01T09:36:15.698Z,134.90
2023-01-01T09:38:42.327Z,119.22
2023-01-01T09:41:19.929Z,110.22
2023-01-01T09:44:26.241Z,105.50
2023-01-01T09:46:54.560Z,126.93
2023-01-01T09:49:41.233Z,115.13
2023-01-01T09:52:13.146Z,120.95
2023-01-01T09:54:59.843Z,121.78
2023-01-01T09:57:30.743Z,125.00
2023-01-01T10:02:41.230Z,110.18
2023-01-01T10:05:29.861Z,102.40
2023-01-01T10:08:02.597Z,107.18
2023-01-01T10:10:57.591Z,94.95
2023-01-01T10:13:36.632Z,102.20
2023-01-01T10:16:12.266Z,87.45
2023-01-01T10:18:40.871Z,95.63
2023-01-01T10:21:16.241Z,74.43
2023-01-01T10:23:54.745Z,85.45
2023-01-01T10:26:24.914Z,82.68
2023-01-01T10:28:57.116Z,80.82
2023-01-01T10:31:55.124Z,67.53
2023-01-01T10:34:25.974Z,81.05
2023-01-01T10:39:20.512Z,83.40
2023-01-01T10:41:48.071Z,79.35
2023-01-01T10:44:18.537Z,81.10
2023-01-01T10:46:50.561Z,73.90
2023-01-01T10:49:17.112Z,63.15
2023-01-01T10:51:54.312Z,75.80
2023-01-01T10:54:32.674Z,75.07
2023-01-01T10:56:59.795Z,56.03
2023-01-01T10:59:39.640Z,58.33
2023-01-01T11:02:28.351Z,71.33
2023-01-01T11:05:22.184Z,68.13
2023-01-01T11:07:49.599Z,57.05
2023-01-01T11:10:21.516Z,54.80
2023-01-01T11:13:05.729Z,61.60
2023-01-01T11:15:39.516Z,54.45
2023-01-01T11:18:25.781Z,51.92
2023-01-01T11:20:54.634Z,49.83
2023-01-01T11:23:32.292Z,47.47
2023-01-01T11:26:01.500Z,57.63
2023-01-01T11:28:28.448Z,56.38
2023-01-01T11:31:16.012Z,46.25
2023-01-01T11:33:52.625Z,40.83
2023-01-01T11:36:31.212Z,49.92
2023-01-01T11:39:25.145Z,38.63
2023-01-01T11:41:54.316Z,73.70
2023-01-01T11:44:34.685Z,44.33
2023-01-01T11:47:02.363Z,42.30
2023-01-01T11:49:30.446Z,39.05
2023-01-01T11:51:58.437Z,30.15
2023-01-01T11:54:33.317Z,33.28
2023-01-01T11:57:12.066Z,30.52
2023-01-01T11:59:49.881Z,33.20
2023-01-01T12:02:30.394Z,32.45
2023-01-01T12:05:13.789Z,27.80
2023-01-01T12:07:43.208Z,24.55
2023-01-01T12:10:23.078Z,24.45
2023-01-01T12:13:04.206Z,28.58
2023-01-01T12:15:47.677Z,25.38
2023-01-01T12:18:39.693Z,29.33
2023-01-01T12:21:18.599Z,27.80
2023-01-01T12:23:45.098Z,31.33
2023-01-01T12:26:32.068Z,24.30
2023-01-01T12:29:35.253Z,24.35
2023-01-01T12:32:17.517Z,26.13
2023-01-01T12:34:59.337Z,24.48
2023-01-01T12:37:28.335Z,22.95
2023-01-01T12:40:00.502Z,30.65
2023-01-01T12:43:01.647Z,27.20
2023-01-01T12:46:01.577Z,20.70
2023-01-01T12:48:28.129Z,19.48
2023-01-01T12:51:19.326Z,20.98
2023-01-01T12:54:12.911Z,18.70
2023-01-01T12:57:17.084Z,20.73
2023-01-01T12:59:48.249Z,17.55
2023-01-01T13:02:20.783Z,17.98
2023-01-01T13:04:49.581Z,18.42
2023-01-01T13:07:26.089Z,17.05
2023-01-01T13:09:52.519Z,18.38
2023-01-01T13:12:23.129Z,14.85
2023-01-01T13:17:30.181Z,19.35
2023-01-01T13:20:15.062Z,18.55
2023-01-01T13:22:42.280Z,18.08
2023-01-01T13:25:08.941Z,16.02
2023-01-01T13:27:57.183Z,17.33
2023-01-01T13:30:35.983Z,12.35
2023-01-01T13:33:31.241Z,13.45
2023-01-01T13:36:10.047Z,12.55
2023-01-01T13:38:53.109Z,11.48
2023-01-01T13:41:25.297Z,9.90
2023-01-01T13:44:11.433Z,11.02
2023-01-01T13:46:44.077Z,16.88
2023-01-01T13:49:28.085Z,20.45
2023-01-01T13:52:09.790Z,15.10
2023-01-01T13:54:38.878Z,14.77
2023-01-01T13:57:38.145Z,16.48
2023-01-01T14:00:14.072Z,20.48
2023-01-01T14:02:48.627Z,14.60
2023-01-01T14:05:33.356Z,15.98
2023-01-01T14:07:59.862Z,13.13
2023-01-01T14:10:34.455Z,12.02
2023-01-01T14:13:06.637Z,10.75
2023-01-01T14:15:37.860Z,11.52
2023-01-01T14:18:10.133Z,11.20
2023-01-01T14:20:43.058Z,14.15
2023-01-01T14:23:29.483Z,12.90
2023-01-01T14:25:56.932Z,12.95
2023-01-01T14:28:29.347Z,13.80
2023-01-01T14:30:57.562Z,11.45
2023-01-01T14:33:27.669Z,10.55
2023-01-01T14:35:56.202Z,11.85
2023-01-01T14:38:28.323Z,10.90
2023-01-01T14:41:15.471Z,11.98
2023-01-01T14:43:45.259Z,13.38
2023-01-01T14:46:21.185Z,14.90
2023-01-01T14:48:51.695Z,15.35
2023-01-01T14:51:23.756Z,12.75
2023-01-01T14:53:52.912Z,12.80
2023-01-01T14:56:28.453Z,14.43
2023-01-01T14:59:12.465Z,13.95
2023-01-01T15:01:38.908Z,13.15
2023-01-01T15:04:19.145Z,15.15
2023-01-01T15:06:45.757Z,13.13
2023-01-01T15:09:16.590Z,14.93
2023-01-01T15:11:43.439Z,14.38
2023-01-01T15:14:39.079Z,15.00
2023-01-01T15:17:08.259Z,13.88
2023-01-01T15:19:36.329Z,12.20
2023-01-01T15:22:11.683Z,15.35
2023-01-01T15:24:39.446Z,14.00
2023-01-01T15:27:07.734Z,13.63
2023-01-01T15:29:44.903Z,10.65
2023-01-01T15:32:14.731Z,11.30
2023-01-01T15:34:50.229Z,16.07
2023-01-01T15:37:23.312Z,14.43
2023-01-01T15:39:52.685Z,14.60
2023-01-01T15:42:35.574Z,15.32
2023-01-01T15:45:22.458Z,16.42
2023-01-01T15:47:51.200Z,14.45
2023-01-01T15:50:17.564Z,17.98
2023-01-01T15:52:44.471Z,28.88
2023-01-01T15:55:15.676Z,22.08
2023-01-01T15:57:46.371Z,26.45
2023-01-01T16:00:40.935Z,22.42
2023-01-01T16:03:21.815Z,19.00
2023-01-01T16:08:16.854Z,21.90
2023-01-01T16:10:43.592Z,46.10
2023-01-01T16:13:10.123Z,26.80
2023-01-01T16:15:37.167Z,26.52
2023-01-01T16:18:04.072Z,18.98
2023-01-01T16:20:30.485Z,19.25
2023-01-01T16:22:56.831Z,18.45
2023-01-01T16:25:23.282Z,16.77
2023-01-01T16:27:49.879Z,16.30
2023-01-01T16:30:16.645Z,18.25
2023-01-01T16:32:43.121Z,17.08
2023-01-01T16:35:13.584Z,18.38
2023-01-01T16:37:40.083Z,18.85
2023-01-01T16:40:07.551Z,20.85
2023-01-01T16:42:34.035Z,15.80
2023-01-01T16:45:00.692Z,16.10
2023-01-01T16:47:27.280Z,17.55
2023-01-01T16:49:53.645Z,17.30
2023-01-01T16:52:20.108Z,19.90
2023-01-01T16:54:46.560Z,16.92
2023-01-01T16:57:13.057Z,16.95
2023-01-01T16:59:39.658Z,20.30
2023-01-01T17:02:06.448Z,21.20
2023-01-01T17:04:33.012Z,20.88
2023-01-01T17:06:59.419Z,23.85
2023-01-01T17:09:26.095Z,20.45
2023-01-01T17:11:52.520Z,20.92
2023-01-01T17:14:18.817Z,22.45
2023-01-01T17:16:45.215Z,24.88
2023-01-01T17:19:14.987Z,25.35
2023-01-01T17:21:42.518Z,27.85
2023-01-01T17:24:09.288Z,26.65
2023-01-01T17:26:35.775Z,24.58
2023-01-01T17:29:03.125Z,31.17
2023-01-01T17:31:30.100Z,28.48
2023-01-01T17:33:57.060Z,27.95
2023-01-01T17:36:23.704Z,28.58
2023-01-01T17:38:50.063Z,26.60
2023-01-01T17:41:17.726Z,26.98
2023-01-01T17:43:47.747Z,26.23
2023-01-01T17:46:17.218Z,27.00
2023-01-01T17:48:44.405Z,31.63
2023-01-01T17:51:12.812Z,22.35
2023-01-01T17:53:39.497Z,21.15
2023-01-01T17:56:06.691Z,25.23
2023-01-01T17:58:35.452Z,27.20
2023-01-01T18:01:19.091Z,28.70
2023-01-01T18:03:45.737Z,23.33
2023-01-01T18:06:12.158Z,21.05
2023-01-01T18:08:38.533Z,25.33
2023-01-01T18:11:05.353Z,24.15
2023-01-01T18:13:32.271Z,26.90
2023-01-01T18:16:08.036Z,27.75
2023-01-01T18:18:38.790Z,25.02
2023-01-01T18:21:12.476Z,28.00
2023-01-01T18:23:39.921Z,29.95
2023-01-01T18:26:09.545Z,24.85
2023-01-01T18:28:35.923Z,23.75
2023-01-01T18:31:16.140Z,24.67
2023-01-01T18:33:43.211Z,24.80
2023-01-01T18:36:12.617Z,27.27
2023-01-01T18:38:58.332Z,25.10
2023-01-01T18:41:33.724Z,29.90
2023-01-01T18:44:00.430Z,24.77
2023-01-01T18:46:29.388Z,27.55
2023-01-01T18:48:59.826Z,25.88
2023-01-01T18:51:26.588Z,29.13
2023-01-01T18:53:58.685Z,23.17
2023-01-01T18:56:25.641Z,27.60
2023-01-01T18:58:56.322Z,23.45
2023-01-01T19:01:24.258Z,26.77
2023-01-01T19:04:01.021Z,24.45
2023-01-01T19:06:36.113Z,25.45
2023-01-01T19:09:23.334Z,30.55
2023-01-01T19:11:54.407Z,28.55
2023-01-01T19:14:24.175Z,25.45
2023-01-01T19:16:55.481Z,23.40
2023-01-01T19:19:26.859Z,23.52
2023-01-01T19:22:01.725Z,25.08
2023-01-01T19:24:31.371Z,26.85
2023-01-01T19:27:15.375Z,24.80
2023-01-01T19:29:44.489Z,30.48
2023-01-01T19:32:11.136Z,26.10
2023-01-01T19:34:37.702Z,30.35
2023-01-01T19:37:04.997Z,30.98
2023-01-01T19:39:32.161Z,30.52
2023-01-01T19:41:58.784Z,32.35
2023-01-01T19:44:25.521Z,31.30
2023-01-01T19:46:51.920Z,32.08
2023-01-01T19:49:18.317Z,26.42
2023-01-01T19:51:45.108Z,30.20
2023-01-01T19:54:11.745Z,27.90
2023-01-01T19:56:38.256Z,29.17
2023-01-01T19:59:04.789Z,28.00
2023-01-01T20:01:31.261Z,31.73
2023-01-01T20:03:58.040Z,30.45
2023-01-01T20:06:26.016Z,30.58
2023-01-01T20:08:53.733Z,28.67
2023-01-01T20:11:21.020Z,31.30
2023-01-01T20:13:48.155Z,25.25
2023-01-01T20:16:14.569Z,23.38
2023-01-01T20:18:40.994Z,24.05
2023-01-01T20:21:07.541Z,29.52
2023-01-01T20:23:34.038Z,23.98
2023-01-01T20:26:00.472Z,26.27
2023-01-01T20:28:26.876Z,28.35
2023-01-01T20:30:53.273Z,24.20
2023-01-01T20:33:19.787Z,28.27
2023-01-01T20:35:46.232Z,26.83
2023-01-01T20:38:12.717Z,26.85
2023-01-01T20:40:39.199Z,26.92
2023-01-01T20:43:06.055Z,24.77
2023-01-01T20:45:32.622Z,27.80
2023-01-01T20:47:59.163Z,28.92
2023-01-01T20:50:25.796Z,32.78
2023-01-01T20:52:52.180Z,27.73
2023-01-01T20:55:18.524Z,26.40
2023-01-01T20:57:44.877Z,33.65
2023-01-01T21:00:11.657Z,28.45
2023-01-01T21:02:38.147Z,28.25
2023-01-01T21:05:04.849Z,32.00
2023-01-01T21:07:31.390Z,30.40
2023-01-01T21:09:57.851Z,27.63
2023-01-01T21:12:24.217Z,23.90
2023-01-01T21:14:51.655Z,23.80
2023-01-01T21:17:23.118Z,23.52
2023-01-01T21:19:52.127Z,24.23
2023-01-01T21:22:18.490Z,23.60
2023-01-01T21:24:49.696Z,21.80
2023-01-01T21:27:24.245Z,26.33
2023-01-01T21:29:55.938Z,24.15
2023-01-01T21:32:26.829Z,28.80
2023-01-01T21:37:33.599Z,27.35
2023-01-01T21:40:00.185Z,28.23
2023-01-01T21:42:28.141Z,24.10
2023-01-01T21:44:57.560Z,29.13
2023-01-01T21:47:25.907Z,27.30
2023-01-01T21:49:56.235Z,26.17
2023-01-01T21:52:25.021Z,28.70
2023-01-01T21:54:51.319Z,29.70
2023-01-01T21:57:22.497Z,28.55
2023-01-01T21:59:50.540Z,27.08
2023-01-01T22:02:26.239Z,29.67
2023-01-01T22:04:52.758Z,31.60
2023-01-01T22:10:21.883Z,42.60
2023-01-01T22:12:53.959Z,32.22
2023-01-01T22:15:26.432Z,30.65
2023-01-01T22:18:21.887Z,28.13
2023-01-01T22:20:48.632Z,23.92
2023-01-01T22:23:28.525Z,28.38
2023-01-01T22:25:54.839Z,26.85
2023-01-01T22:28:27.237Z,25.50
2023-01-01T22:30:58.695Z,25.38
2023-01-01T22:33:37.747Z,26.25
2023-01-01T22:36:15.211Z,32.42
2023-01-01T22:38:43.111Z,26.10
2023-01-01T22:41:09.896Z,26.95
2023-01-01T22:43:41.099Z,28.77
2023-01-01T22:46:17.026Z,29.38
2023-01-01T22:48:43.604Z,26.40
2023-01-01T22:51:18.425Z,27.17
2023-01-01T22:53:45.223Z,28.73
2023-01-01T22:56:11.722Z,28.15
2023-01-01T22:58:38.213Z,25.70
2023-01-01T23:01:04.761Z,26.05
2023-01-01T23:03:31.373Z,24.48
2023-01-01T23:05:58.641Z,27.65
2023-01-01T23:08:25.872Z,25.67
2023-01-01T23:10:53.470Z,25.73
2023-01-01T23:13:20.083Z,27.63
2023-01-01T23:15:49.725Z,25.30
2023-01-01T23:18:20.212Z,30.23
2023-01-01T23:20:46.557Z,29.50
2023-01-01T23:23:12.949Z,35.70
2023-01-01T23:25:39.437Z,29.10
2023-01-01T23:28:05.976Z,26.88
2023-01-01T23:30:32.698Z,27.77
2023-01-01T23:32:59.264Z,29.25
2023-01-01T23:35:25.756Z,28.35
2023-01-01T23:37:52.229Z,25.95
2023-01-01T23:40:18.834Z,31.27
2023-01-01T23:42:45.162Z,26.80
2023-01-01T23:45:11.508Z,25.65
2023-01-01T23:47:37.865Z,26.08
2023-01-01T23:50:04.567Z,31.55
2023-01-01T23:52:31.064Z,24.23
2023-01-01T23:54:57.426Z,23.23
2023-01-01T23:57:23.890Z,24.65
2023-01-01T23:59:50.237Z,28.90
